createdAt,value
2018-06-10T00:01:33.136Z,12.23
2018-06-10T00:04:03.706Z,9.80
2018-06-10T00:06:34.587Z,10.93
2018-06-10T00:09:07.932Z,8.40
2018-06-10T00:11:39.429Z,8.30
2018-06-10T00:14:10.055Z,10.93
2018-06-10T00:16:40.684Z,14.37
2018-06-10T00:19:11.315Z,11.60
2018-06-10T00:21:42.053Z,14.90
2018-06-10T00:24:12.924Z,13.30
2018-06-10T00:26:43.603Z,9.40
2018-06-10T00:29:19.326Z,9.90
2018-06-10T00:31:51.420Z,10.17
2018-06-10T00:34:22.844Z,11.20
2018-06-10T00:36:54.175Z,8.00
2018-06-10T00:39:24.865Z,12.20
2018-06-10T00:41:55.596Z,10.40
2018-06-10T00:44:26.310Z,10.30
2018-06-10T00:46:56.995Z,10.10
2018-06-10T00:49:28.898Z,18.90
2018-06-10T00:51:59.548Z,20.90
2018-06-10T00:54:30.442Z,22.63
2018-06-10T00:57:01.090Z,16.33
2018-06-10T00:59:31.850Z,13.90
2018-06-10T01:02:02.705Z,8.87
2018-06-10T01:04:33.441Z,15.23
2018-06-10T01:07:04.150Z,10.70
2018-06-10T01:09:34.913Z,15.00
2018-06-10T01:12:05.729Z,10.93
2018-06-10T01:14:37.151Z,19.13
2018-06-10T01:17:07.677Z,14.27
2018-06-10T01:19:39.844Z,12.60
2018-06-10T01:22:10.419Z,23.90
2018-06-10T01:24:41.211Z,12.67
2018-06-10T01:27:11.933Z,14.57
2018-06-10T01:29:42.560Z,33.97
2018-06-10T01:32:13.221Z,15.73
2018-06-10T01:34:44.393Z,28.40
2018-06-10T01:37:15.398Z,19.90
2018-06-10T01:39:45.976Z,11.83
2018-06-10T01:42:17.365Z,16.17
2018-06-10T01:44:48.124Z,20.13
2018-06-10T01:47:18.732Z,11.90
2018-06-10T01:49:49.309Z,21.17
2018-06-10T01:52:20.053Z,21.30
2018-06-10T01:54:51.520Z,17.90
2018-06-10T01:57:22.251Z,21.83
2018-06-10T01:59:53.028Z,25.30
2018-06-10T02:02:23.598Z,24.63
2018-06-10T02:04:54.587Z,22.30
2018-06-10T02:07:25.296Z,22.00
2018-06-10T02:09:55.893Z,19.93
2018-06-10T02:12:33.730Z,16.67
2018-06-10T02:15:05.680Z,15.90
2018-06-10T02:17:36.245Z,22.27
2018-06-10T02:20:10.914Z,20.43
2018-06-10T02:22:42.290Z,18.33
2018-06-10T02:25:12.917Z,21.27
2018-06-10T02:27:44.458Z,15.80
2018-06-10T02:30:15.289Z,19.90
2018-06-10T02:32:46.339Z,14.50
2018-06-10T02:35:16.941Z,16.83
2018-06-10T02:37:48.208Z,26.73
2018-06-10T02:40:20.225Z,24.13
2018-06-10T02:42:50.900Z,22.73
2018-06-10T02:45:23.554Z,34.77
2018-06-10T02:47:54.786Z,21.20
2018-06-10T02:50:25.669Z,17.47
2018-06-10T02:52:56.788Z,30.57
2018-06-10T02:55:27.137Z,22.93
2018-06-10T02:57:57.661Z,20.57
2018-06-10T03:00:28.528Z,24.80
2018-06-10T03:02:59.105Z,19.73
2018-06-10T03:05:29.687Z,19.00
2018-06-10T03:08:00.283Z,19.77
2018-06-10T03:10:30.898Z,34.93
2018-06-10T03:13:01.537Z,25.17
2018-06-10T03:15:32.297Z,19.17
2018-06-10T03:18:02.950Z,25.17
2018-06-10T03:20:33.581Z,21.47
2018-06-10T03:23:04.191Z,15.80
2018-06-10T03:25:34.920Z,20.43
2018-06-10T03:28:05.656Z,18.23
2018-06-10T03:30:36.296Z,28.00
2018-06-10T03:33:06.860Z,20.47
2018-06-10T03:35:38.429Z,19.40
2018-06-10T03:38:09.031Z,21.90
2018-06-10T03:40:39.557Z,21.30
2018-06-10T03:43:10.209Z,21.37
2018-06-10T03:45:43.981Z,21.90
2018-06-10T03:48:16.853Z,28.77
2018-06-10T03:50:47.693Z,19.90
2018-06-10T03:53:18.297Z,17.93
2018-06-10T03:55:48.759Z,29.37
2018-06-10T03:58:19.379Z,18.10
2018-06-10T04:00:49.615Z,33.77
2018-06-10T04:03:20.185Z,31.40
2018-06-10T04:05:51.262Z,23.83
2018-06-10T04:08:21.899Z,25.93
2018-06-10T04:10:56.176Z,27.23
2018-06-10T04:13:27.945Z,19.63
2018-06-10T04:15:59.534Z,20.27
2018-06-10T04:18:30.330Z,27.47
2018-06-10T04:21:00.892Z,20.57
2018-06-10T04:23:31.644Z,25.23
2018-06-10T04:26:02.217Z,19.87
2018-06-10T04:28:33.823Z,16.70
2018-06-10T04:31:05.771Z,19.17
2018-06-10T04:33:36.316Z,24.90
2018-06-10T04:36:07.028Z,20.83
2018-06-10T04:38:37.779Z,20.80
2018-06-10T04:41:08.604Z,22.73
2018-06-10T04:43:39.166Z,22.07
2018-06-10T04:46:09.853Z,19.40
2018-06-10T04:48:40.414Z,23.30
2018-06-10T04:51:11.049Z,21.10
2018-06-10T04:53:42.457Z,19.67
2018-06-10T04:56:17.496Z,24.00
2018-06-10T04:58:48.041Z,31.07
2018-06-10T05:01:19.313Z,21.33
2018-06-10T05:03:50.741Z,18.13
2018-06-10T05:06:21.216Z,22.10
2018-06-10T05:08:52.013Z,17.17
2018-06-10T05:11:26.071Z,26.23
2018-06-10T05:13:57.925Z,29.23
2018-06-10T05:16:28.619Z,19.20
2018-06-10T05:18:59.491Z,20.40
2018-06-10T05:21:30.333Z,21.63
2018-06-10T05:24:07.428Z,22.37
2018-06-10T05:26:38.188Z,27.70
2018-06-10T05:29:08.716Z,17.47
2018-06-10T05:31:39.588Z,17.33
2018-06-10T05:34:10.249Z,17.70
2018-06-10T05:36:40.998Z,21.20
2018-06-10T05:39:11.718Z,18.77
2018-06-10T05:41:43.180Z,22.10
2018-06-10T05:44:13.973Z,19.57
2018-06-10T05:46:44.743Z,17.10
2018-06-10T05:49:15.948Z,18.33
2018-06-10T05:51:46.748Z,14.83
2018-06-10T05:54:17.448Z,20.17
2018-06-10T05:56:48.145Z,14.50
2018-06-10T05:59:19.608Z,19.53
2018-06-10T06:01:51.131Z,22.63
2018-06-10T06:04:21.830Z,23.70
2018-06-10T06:06:54.014Z,21.93
2018-06-10T06:09:26.104Z,17.13
2018-06-10T06:11:56.759Z,17.80
2018-06-10T06:14:27.925Z,15.70
2018-06-10T06:16:58.772Z,17.20
2018-06-10T06:19:29.362Z,11.90
2018-06-10T06:21:59.892Z,12.87
2018-06-10T06:24:30.425Z,10.87
2018-06-10T06:27:01.246Z,10.00
2018-06-10T06:29:31.952Z,11.90
2018-06-10T06:32:03.113Z,11.70
2018-06-10T06:34:33.637Z,9.23
2018-06-10T06:37:04.221Z,8.53
2018-06-10T06:39:34.847Z,10.53
2018-06-10T06:42:05.480Z,13.53
2018-06-10T06:44:35.937Z,8.00
2018-06-10T06:47:06.508Z,11.73
2018-06-10T06:49:37.662Z,8.20
2018-06-10T06:52:09.210Z,8.80
2018-06-10T06:54:41.118Z,9.27
2018-06-10T06:57:12.791Z,7.20
2018-06-10T06:59:43.343Z,7.10
2018-06-10T07:02:13.948Z,8.13
2018-06-10T07:04:44.633Z,8.10
2018-06-10T07:07:15.321Z,7.30
2018-06-10T07:09:46.028Z,6.37
2018-06-10T07:12:16.647Z,7.77
2018-06-10T07:14:47.426Z,13.10
2018-06-10T07:17:18.988Z,6.80
2018-06-10T07:19:49.632Z,6.50
2018-06-10T07:22:20.227Z,5.83
2018-06-10T07:24:50.820Z,5.90
2018-06-10T07:27:21.600Z,6.03
2018-06-10T07:29:52.360Z,17.87
2018-06-10T07:32:23.485Z,10.47
2018-06-10T07:34:54.097Z,5.87
2018-06-10T07:37:24.715Z,6.07
2018-06-10T07:39:55.965Z,5.67
2018-06-10T07:42:26.618Z,5.80
2018-06-10T07:44:57.104Z,5.37
2018-06-10T07:47:27.802Z,4.83
2018-06-10T07:49:58.782Z,7.83
2018-06-10T07:52:29.486Z,6.13
2018-06-10T07:55:00.046Z,6.20
2018-06-10T07:57:30.778Z,6.70
2018-06-10T08:00:02.268Z,5.90
2018-06-10T08:02:33.058Z,6.70
2018-06-10T08:05:03.587Z,6.83
2018-06-10T08:07:34.533Z,8.60
2018-06-10T08:10:05.354Z,6.93
2018-06-10T08:12:35.975Z,8.23
2018-06-10T08:15:08.313Z,8.50
2018-06-10T08:17:40.037Z,6.13
2018-06-10T08:20:15.236Z,7.13
2018-06-10T08:22:45.723Z,8.67
2018-06-10T08:25:17.119Z,9.10
2018-06-10T08:27:53.628Z,7.67
2018-06-10T08:30:25.309Z,7.63
2018-06-10T08:32:56.229Z,12.93
2018-06-10T08:35:27.432Z,9.30
2018-06-10T08:37:59.441Z,11.40
2018-06-10T08:40:31.298Z,9.50
2018-06-10T08:43:01.957Z,8.70
2018-06-10T08:45:32.632Z,8.07
2018-06-10T08:48:03.219Z,12.40
2018-06-10T08:50:33.993Z,7.73
2018-06-10T08:53:04.775Z,9.87
2018-06-10T08:55:35.765Z,7.43
2018-06-10T08:58:06.061Z,7.83
2018-06-10T09:00:36.608Z,7.80
2018-06-10T09:03:07.396Z,7.00
2018-06-10T09:05:38.017Z,9.60
2018-06-10T09:08:09.009Z,7.50
2018-06-10T09:10:39.374Z,7.57
2018-06-10T09:13:10.324Z,7.37
2018-06-10T09:15:40.993Z,8.00
2018-06-10T09:18:11.727Z,6.90
2018-06-10T09:20:42.583Z,8.10
2018-06-10T09:23:13.947Z,6.63
2018-06-10T09:25:48.784Z,9.70
2018-06-10T09:28:19.460Z,7.40
2018-06-10T09:30:50.244Z,6.77
2018-06-10T09:33:20.838Z,7.17
2018-06-10T09:35:52.097Z,7.67
2018-06-10T09:38:22.629Z,5.60
2018-06-10T09:40:53.739Z,8.37
2018-06-10T09:43:24.944Z,5.80
2018-06-10T09:45:56.107Z,9.53
2018-06-10T09:48:26.696Z,7.53
2018-06-10T09:50:57.951Z,5.53
2018-06-10T09:53:29.231Z,5.90
2018-06-10T09:56:00.050Z,5.80
2018-06-10T09:58:30.552Z,6.47
2018-06-10T10:01:01.591Z,5.43
2018-06-10T10:03:33.156Z,6.17
2018-06-10T10:06:04.003Z,5.07
2018-06-10T10:08:34.632Z,5.20
2018-06-10T10:11:05.256Z,6.40
2018-06-10T10:13:35.941Z,5.10
2018-06-10T10:16:06.560Z,5.20
2018-06-10T10:18:37.227Z,10.53
2018-06-10T10:21:08.305Z,5.77
2018-06-10T10:23:39.608Z,5.53
2018-06-10T10:26:10.056Z,9.80
2018-06-10T10:28:40.634Z,5.10
2018-06-10T10:31:11.320Z,5.90
2018-06-10T10:33:41.853Z,7.00
2018-06-10T10:36:12.569Z,11.47
2018-06-10T10:38:43.257Z,6.73
2018-06-10T10:41:14.366Z,5.57
2018-06-10T10:43:44.940Z,5.87
2018-06-10T10:46:15.554Z,6.57
2018-06-10T10:48:46.492Z,6.73
2018-06-10T10:51:17.014Z,8.00
2018-06-10T10:53:47.589Z,6.10
2018-06-10T10:56:18.253Z,5.50
2018-06-10T10:58:48.869Z,7.40
2018-06-10T11:01:19.430Z,6.60
2018-06-10T11:03:50.069Z,8.03
2018-06-10T11:06:20.721Z,6.80
2018-06-10T11:08:51.541Z,7.07
2018-06-10T11:11:22.177Z,7.90
2018-06-10T11:13:52.796Z,7.17
2018-06-10T11:16:23.508Z,6.40
2018-06-10T11:18:54.181Z,7.70
2018-06-10T11:21:24.793Z,8.53
2018-06-10T11:23:55.471Z,11.90
2018-06-10T11:26:26.106Z,7.10
2018-06-10T11:28:56.939Z,9.27
2018-06-10T11:31:27.628Z,9.10
2018-06-10T11:33:58.349Z,10.13
2018-06-10T11:36:29.118Z,7.67
2018-06-10T11:38:59.870Z,11.40
2018-06-10T11:41:30.460Z,7.07
2018-06-10T11:44:01.117Z,7.17
2018-06-10T11:46:32.182Z,6.67
2018-06-10T11:49:02.878Z,7.80
2018-06-10T11:51:33.387Z,8.70
2018-06-10T11:54:04.558Z,7.70
2018-06-10T11:56:35.299Z,7.57
2018-06-10T11:59:05.789Z,9.13
2018-06-10T12:01:36.626Z,8.03
2018-06-10T12:04:07.257Z,8.00
2018-06-10T12:06:37.918Z,10.57
2018-06-10T12:09:09.252Z,9.07
2018-06-10T12:11:39.804Z,12.37
2018-06-10T12:14:10.547Z,10.70
2018-06-10T12:16:41.213Z,11.47
2018-06-10T12:19:12.001Z,13.03
2018-06-10T12:21:42.629Z,9.53
2018-06-10T12:24:13.338Z,8.47
2018-06-10T12:26:44.308Z,10.93
2018-06-10T12:29:14.859Z,12.43
2018-06-10T12:31:45.427Z,10.93
2018-06-10T12:34:16.289Z,7.03
2018-06-10T12:36:47.519Z,9.33
2018-06-10T12:39:18.155Z,7.53
2018-06-10T12:41:48.907Z,7.53
2018-06-10T12:44:19.837Z,6.57
2018-06-10T12:46:50.465Z,8.40
2018-06-10T12:49:21.143Z,8.30
2018-06-10T12:51:51.842Z,4.60
2018-06-10T12:54:22.520Z,4.77
2018-06-10T12:56:57.381Z,4.00
2018-06-10T12:59:27.932Z,5.03
2018-06-10T13:01:58.730Z,5.40
2018-06-10T13:04:29.482Z,4.70
2018-06-10T13:07:00.861Z,6.63
2018-06-10T13:09:31.481Z,5.40
2018-06-10T13:12:02.276Z,6.43
2018-06-10T13:14:32.875Z,6.50
2018-06-10T13:17:03.583Z,7.80
2018-06-10T13:19:34.113Z,9.03
2018-06-10T13:22:05.000Z,7.70
2018-06-10T13:24:35.808Z,6.20
2018-06-10T13:27:06.658Z,6.30
2018-06-10T13:29:37.284Z,5.73
2018-06-10T13:32:08.196Z,6.20
2018-06-10T13:34:39.046Z,6.60
2018-06-10T13:37:09.763Z,8.33
2018-06-10T13:39:40.174Z,7.67
2018-06-10T13:42:10.740Z,6.10
2018-06-10T13:44:41.447Z,9.37
2018-06-10T13:47:11.641Z,6.50
2018-06-10T13:49:42.290Z,9.40
2018-06-10T13:52:12.941Z,11.20
2018-06-10T13:54:43.476Z,7.03
2018-06-10T13:57:15.229Z,8.90
2018-06-10T13:59:45.959Z,12.87
2018-06-10T14:02:20.182Z,6.93
2018-06-10T14:04:50.913Z,7.20
2018-06-10T14:07:21.502Z,8.63
2018-06-10T14:09:52.303Z,8.30
2018-06-10T14:12:23.310Z,7.13
2018-06-10T14:14:53.917Z,11.83
2018-06-10T14:17:24.817Z,8.50
2018-06-10T14:19:55.438Z,7.57
2018-06-10T14:22:26.870Z,6.20
2018-06-10T14:24:57.706Z,7.63
2018-06-10T14:27:28.402Z,6.33
2018-06-10T14:29:59.053Z,11.93
2018-06-10T14:32:30.425Z,6.63
2018-06-10T14:35:01.070Z,7.23
2018-06-10T14:37:31.748Z,9.60
2018-06-10T14:40:02.264Z,7.33
2018-06-10T14:42:32.788Z,9.27
2018-06-10T14:45:03.640Z,9.83
2018-06-10T14:47:34.429Z,7.07
2018-06-10T14:50:05.049Z,9.43
2018-06-10T14:52:35.817Z,9.57
2018-06-10T14:55:06.521Z,10.50
2018-06-10T14:57:37.225Z,9.73
2018-06-10T15:00:08.009Z,7.50
2018-06-10T15:02:38.962Z,13.17
2018-06-10T15:05:09.505Z,12.53
2018-06-10T15:07:40.070Z,8.70
2018-06-10T15:10:10.693Z,9.43
2018-06-10T15:12:41.268Z,9.73
2018-06-10T15:15:11.925Z,10.70
2018-06-10T15:17:42.601Z,12.43
2018-06-10T15:20:13.205Z,13.10
2018-06-10T15:22:44.063Z,12.00
2018-06-10T15:25:14.725Z,13.40
2018-06-10T15:27:45.568Z,15.03
2018-06-10T15:30:16.314Z,12.17
2018-06-10T15:32:47.409Z,15.47
2018-06-10T15:35:18.091Z,14.17
2018-06-10T15:37:48.705Z,16.50
2018-06-10T15:40:19.451Z,12.13
2018-06-10T15:42:50.161Z,13.07
2018-06-10T15:45:20.772Z,13.10
2018-06-10T15:47:51.634Z,11.93
2018-06-10T15:50:22.401Z,9.83
2018-06-10T15:52:53.071Z,10.53
2018-06-10T15:55:23.936Z,9.40
2018-06-10T15:57:54.465Z,10.67
2018-06-10T16:00:25.143Z,10.90
2018-06-10T16:02:55.749Z,12.93
2018-06-10T16:05:26.458Z,11.03
2018-06-10T16:07:57.317Z,15.97
2018-06-10T16:10:28.012Z,11.90
2018-06-10T16:12:58.469Z,7.90
2018-06-10T16:15:29.080Z,8.40
2018-06-10T16:17:59.848Z,12.03
2018-06-10T16:20:30.534Z,21.43
2018-06-10T16:23:01.292Z,8.33
2018-06-10T16:25:31.925Z,11.60
2018-06-10T16:28:02.852Z,11.93
2018-06-10T16:30:33.389Z,10.80
2018-06-10T16:33:04.108Z,9.43
2018-06-10T16:35:34.765Z,20.47
2018-06-10T16:38:05.518Z,15.37
2018-06-10T16:40:36.224Z,16.70
2018-06-10T16:43:07.281Z,20.13
2018-06-10T16:45:38.004Z,19.40
2018-06-10T16:48:08.593Z,17.73
2018-06-10T16:50:38.957Z,24.87
2018-06-10T16:53:09.237Z,26.10
2018-06-10T16:55:39.994Z,12.93
2018-06-10T16:58:10.779Z,17.30
2018-06-10T17:00:41.617Z,15.03
2018-06-10T17:03:12.330Z,18.23
2018-06-10T17:05:43.050Z,17.57
2018-06-10T17:08:13.705Z,9.43
2018-06-10T17:10:44.834Z,14.60
2018-06-10T17:13:15.581Z,14.97
2018-06-10T17:15:46.604Z,13.23
2018-06-10T17:18:17.212Z,9.40
2018-06-10T17:20:47.989Z,10.00
2018-06-10T17:23:18.601Z,13.10
2018-06-10T17:25:49.154Z,12.40
2018-06-10T17:28:19.736Z,19.70
2018-06-10T17:30:50.398Z,15.97
2018-06-10T17:33:20.883Z,18.27
2018-06-10T17:35:51.516Z,15.33
2018-06-10T17:38:22.305Z,11.10
2018-06-10T17:40:52.929Z,15.27
2018-06-10T17:43:23.772Z,14.00
2018-06-10T17:45:54.385Z,20.93
2018-06-10T17:48:25.111Z,13.20
2018-06-10T17:50:55.754Z,15.50
2018-06-10T17:53:26.528Z,17.87
2018-06-10T17:55:57.264Z,19.80
2018-06-10T17:58:27.895Z,16.90
2018-06-10T18:00:58.788Z,14.80
2018-06-10T18:03:29.689Z,15.00
2018-06-10T18:06:00.407Z,17.53
2018-06-10T18:08:31.153Z,18.67
2018-06-10T18:11:01.824Z,19.20
2018-06-10T18:13:32.565Z,21.17
2018-06-10T18:16:03.362Z,29.37
2018-06-10T18:18:34.409Z,18.03
2018-06-10T18:21:05.988Z,25.80
2018-06-10T18:23:36.791Z,21.97
2018-06-10T18:26:07.755Z,22.93
2018-06-10T18:28:38.835Z,18.93
2018-06-10T18:31:09.511Z,18.90
2018-06-10T18:33:40.437Z,22.07
2018-06-10T18:36:11.250Z,21.93
2018-06-10T18:38:42.033Z,23.43
2018-06-10T18:41:12.946Z,20.17
2018-06-10T18:43:43.523Z,26.33
2018-06-10T18:46:14.136Z,21.10
2018-06-10T18:48:44.792Z,21.67
2018-06-10T18:51:15.414Z,27.30
2018-06-10T18:53:46.314Z,25.90
2018-06-10T18:56:16.908Z,24.83
2018-06-10T18:58:47.692Z,24.67
2018-06-10T19:01:18.530Z,32.17
2018-06-10T19:03:49.421Z,26.97
2018-06-10T19:06:20.010Z,29.93
2018-06-10T19:08:50.223Z,26.13
2018-06-10T19:11:20.978Z,29.13
2018-06-10T19:13:51.698Z,24.20
2018-06-10T19:16:22.768Z,33.23
2018-06-10T19:18:53.442Z,26.07
2018-06-10T19:21:24.193Z,32.23
2018-06-10T19:23:54.964Z,25.00
2018-06-10T19:26:26.353Z,24.53
2018-06-10T19:28:56.960Z,37.40
2018-06-10T19:31:27.611Z,27.17
2018-06-10T19:33:58.486Z,27.60
2018-06-10T19:36:29.184Z,27.23
2018-06-10T19:39:00.045Z,32.77
2018-06-10T19:41:30.765Z,24.93
2018-06-10T19:44:01.816Z,23.40
2018-06-10T19:46:32.488Z,23.03
2018-06-10T19:49:03.209Z,24.37
2018-06-10T19:51:33.793Z,26.27
2018-06-10T19:54:05.006Z,25.37
2018-06-10T19:56:35.925Z,28.97
2018-06-10T19:59:06.537Z,25.63
2018-06-10T20:01:37.199Z,26.20
2018-06-10T20:04:07.953Z,23.07
2018-06-10T20:06:38.746Z,26.43
2018-06-10T20:09:09.839Z,23.80
2018-06-10T20:11:40.540Z,26.43
2018-06-10T20:14:11.250Z,25.00
2018-06-10T20:16:41.795Z,32.60
2018-06-10T20:19:12.689Z,27.07
2018-06-10T20:21:43.504Z,31.50
2018-06-10T20:24:14.404Z,32.80
2018-06-10T20:26:45.214Z,33.30
2018-06-10T20:29:16.327Z,39.37
2018-06-10T20:31:46.947Z,31.93
2018-06-10T20:34:17.645Z,31.77
2018-06-10T20:36:48.420Z,27.53
2018-06-10T20:39:18.985Z,44.07
2018-06-10T20:41:49.820Z,40.87
2018-06-10T20:44:20.930Z,33.27
2018-06-10T20:46:51.604Z,46.37
2018-06-10T20:49:21.991Z,38.70
2018-06-10T20:51:52.551Z,43.43
2018-06-10T20:54:23.369Z,48.30
2018-06-10T20:56:54.114Z,41.77
2018-06-10T20:59:24.822Z,44.63
2018-06-10T21:01:56.254Z,42.30
2018-06-10T21:04:26.716Z,45.80
2018-06-10T21:06:58.003Z,41.60
2018-06-10T21:09:28.736Z,44.70
2018-06-10T21:11:59.486Z,44.53
2018-06-10T21:14:30.515Z,47.40
2018-06-10T21:17:01.222Z,36.90
2018-06-10T21:19:31.977Z,50.13
2018-06-10T21:22:02.726Z,32.00
2018-06-10T21:24:33.316Z,34.10
2018-06-10T21:27:04.132Z,44.57
2018-06-10T21:29:35.362Z,36.30
2018-06-10T21:32:05.951Z,34.43
2018-06-10T21:34:36.338Z,37.30
2018-06-10T21:37:06.926Z,45.73
2018-06-10T21:39:37.564Z,33.23
2018-06-10T21:42:08.233Z,41.60
2018-06-10T21:44:38.963Z,36.93
2018-06-10T21:47:09.949Z,40.27
2018-06-10T21:49:40.563Z,39.03
2018-06-10T21:52:11.139Z,37.00
2018-06-10T21:54:41.889Z,36.43
2018-06-10T21:57:12.497Z,35.07
2018-06-10T21:59:42.830Z,47.03
2018-06-10T22:02:13.528Z,38.33
2018-06-10T22:04:49.226Z,36.43
2018-06-10T22:07:19.851Z,38.97
2018-06-10T22:09:50.573Z,38.43
2018-06-10T22:12:21.406Z,50.70
2018-06-10T22:14:52.377Z,42.23
2018-06-10T22:17:23.051Z,39.80
2018-06-10T22:19:53.742Z,48.67
2018-06-10T22:22:24.006Z,45.80
2018-06-10T22:24:54.562Z,53.70
2018-06-10T22:27:25.094Z,38.13
2018-06-10T22:29:55.830Z,49.07
2018-06-10T22:32:26.576Z,50.80
2018-06-10T22:34:57.354Z,48.43
2018-06-10T22:37:28.384Z,43.40
2018-06-10T22:39:59.098Z,49.97
2018-06-10T22:42:29.820Z,43.27
2018-06-10T22:45:00.438Z,53.10
2018-06-10T22:47:30.739Z,47.87
2018-06-10T22:50:01.178Z,44.30
2018-06-10T22:52:32.137Z,42.03
2018-06-10T22:55:02.784Z,44.00
2018-06-10T22:57:33.500Z,43.13
2018-06-10T23:00:04.641Z,46.97
2018-06-10T23:02:34.551Z,43.40
2018-06-10T23:05:05.754Z,45.60
2018-06-10T23:07:36.455Z,40.47
2018-06-10T23:10:07.346Z,46.30
2018-06-10T23:12:37.985Z,39.40
2018-06-10T23:15:08.348Z,39.53
2018-06-10T23:17:38.920Z,43.93
2018-06-10T23:20:09.580Z,53.63
2018-06-10T23:22:39.800Z,41.63
2018-06-10T23:25:10.438Z,43.83
2018-06-10T23:27:41.052Z,55.13
2018-06-10T23:30:11.860Z,37.23
2018-06-10T23:32:42.702Z,40.07
2018-06-10T23:35:13.969Z,38.07
2018-06-10T23:37:44.645Z,33.87
2018-06-10T23:40:15.227Z,34.33
2018-06-10T23:42:45.764Z,31.30
2018-06-10T23:45:20.793Z,41.43
2018-06-10T23:47:51.328Z,42.77
2018-06-10T23:50:21.951Z,39.53
2018-06-10T23:52:52.450Z,40.23
2018-06-10T23:55:22.962Z,30.63
2018-06-10T23:57:53.771Z,39.83
